Share

Aberporth, United Kingdom

Crymych (IDYFEDCR2) Elev 700 ft | 51.98 °N, 4.65 °W | Change Station

Current weather conditions updated 2 seconds ago

Clear
Clear
37.6 °F
Feels Like 38 °F
N
2.3
Wind Variable Wind from WNW
Gusts 2.3 mph
Sunrise 6:10 AM
Sunset 8:24 PM
Moon Waning Gibbous

Today is forecast to be Warmer than yesterday. Cloudy with rain likely early tonight.

Pressure 29.92 in
Visibility 6.2 miles
Clouds
Windchill 38 °F
Dew Point 36 °F
Humidity 93%
Rainfall 0.00 in
Snow Depth Not available.
UV Not available.
Pollen Not available.
Air Quality Not available.
Flu Activity Not available.
METAR EGOP 200250Z AUTO 04007KT 9999 // NCD 04/03 Q1013

More Conditions Fewer Conditions

Pressure 29.92 in
Visibility 6.2 miles
Clouds
Windchill 38 °F
Dew Point 36 °F
Humidity 93%
Rainfall 0.00 in
Snow Depth Not available.
UV Not available.
Pollen Not available.
Air Quality Not available.
Flu Activity Not available.
METAR EGOP 200250Z AUTO 04007KT 9999 // NCD 04/03 Q1013

More Conditions Fewer Conditions

10-Day Weather Forecast

Almanac

Astronomy

Apr. 20, 2014 Rise Set
Actual Time 6:10 AM BST 8:24 PM BST
Civil Twilight 5:34 AM BST 9:01 PM BST
Nautical Twilight 4:47 AM BST 9:48 PM BST
Astronomical Twilight 3:54 AM BST 10:42 PM BST
Moon 1:07 AM BST 10:00 AM BST
Length of Visible Light 15h 27m
Length of Day
14h 13m
Tomorrow will be 3m 50s longer.
Waning Gibbous, 74% of the Moon is Illuminated
Apr 19
Waning Gibbous
Apr 22
Last Quarter
Apr 29
New
May 6
First Quarter
May 14
Full

Yesterday's Extremes

Country Highs Country Lows

Community

  • Cherry Blossoms
    Cherry Blossoms
  • White-Crowned Sparrow
    White-Crowned Sparrow
  • New Day
    New Day
  • Happy Easter!
    Happy Easter!
  • poppy bloom near Mazar-e-Sharif
    poppy bloom near Mazar-e-Sharif

WunderPhotos

Upload Photos

1,703,068 photos uploaded!

WunderBlogs® & News

Nearby

Snow Depth

Not available.

Coastal Water Temperatures

Place Temperature
No Stations Reporting

Earthquake Activity

City Distance Mag. Time & Date
No recent earthquake activity has been reported nearby.
Minimum magnitude displayed is 2.5.

Nearby Weather Stations

Station Location Temp. Windchill Dew Point Humidity Wind Precip. Elev Updated Type
Crymych, Crymych 37.6 °F 38 °F 36 °F 93% WNW  at  2.3 mph 0.00 in / hr 700 ft 4:58 AM BST Rapid Fire
Crymych 30.7 °F 31 °F 27 °F 91% East  at  0.0 mph 0.00 in / hr 322 ft 4:58 AM BST Rapid Fire
Bancyffordd 36.0 °F 36 °F -56 °F - North  at  0.0 mph 0.00 in / hr 682 ft 4:55 AM BST Normal
Preseli Hills, United Kingdom 41.1 °F 39 °F - - ENE  at  3.2 mph 0.00 in / hr 768 ft 4:52 AM BST Normal
Llanwnnen, Lampeter 37.8 °F 33 °F 36 °F 94% NNW  at  6.0 mph 0.00 in / hr 413 ft 4:58 AM BST Rapid Fire
Llanwnnen, Lampeter 38.8 °F 39 °F 36 °F 88% NNW  at  0.0 mph 0.00 in / hr 413 ft 4:55 AM BST Normal

Show More Stations Show Fewer Stations

What do you think?

We're not finished. Please let us know what you like, what you don't like, and what you are still missing.